createdAt,value
2023-02-22T00:00:59.789Z,37.90
2023-02-22T00:03:32.301Z,37.30
2023-02-22T00:06:04.982Z,36.40
2023-02-22T00:08:36.854Z,37.13
2023-02-22T00:11:09.033Z,35.50
2023-02-22T00:13:37.656Z,34.70
2023-02-22T00:16:05.139Z,35.72
2023-02-22T00:18:32.083Z,34.90
2023-02-22T00:21:00.754Z,32.88
2023-02-22T00:23:29.820Z,34.15
2023-02-22T00:25:58.466Z,32.55
2023-02-22T00:28:25.512Z,33.00
2023-02-22T00:30:52.962Z,30.02
2023-02-22T00:33:21.272Z,31.02
2023-02-22T00:35:48.076Z,33.05
2023-02-22T00:38:17.520Z,35.03
2023-02-22T00:40:46.836Z,31.42
2023-02-22T00:43:14.485Z,34.58
2023-02-22T00:45:41.972Z,32.38
2023-02-22T00:48:15.189Z,32.50
2023-02-22T00:50:44.449Z,30.48
2023-02-22T00:53:11.908Z,33.65
2023-02-22T00:55:39.664Z,28.58
2023-02-22T00:58:08.872Z,29.52
2023-02-22T01:00:38.498Z,33.67
2023-02-22T01:03:10.588Z,29.80
2023-02-22T01:05:42.375Z,29.60
2023-02-22T01:08:10.725Z,27.77
2023-02-22T01:10:39.431Z,28.25
2023-02-22T01:13:09.439Z,28.63
2023-02-22T01:15:41.942Z,32.58
2023-02-22T01:18:09.316Z,31.75
2023-02-22T01:20:36.613Z,31.42
2023-02-22T01:23:07.150Z,29.33
2023-02-22T01:25:35.262Z,28.83
2023-02-22T01:28:03.445Z,29.42
2023-02-22T01:30:34.463Z,32.17
2023-02-22T01:33:04.374Z,30.48
2023-02-22T01:35:35.793Z,27.50
2023-02-22T01:38:05.531Z,29.98
2023-02-22T01:40:38.285Z,29.08
2023-02-22T01:43:32.550Z,28.45
2023-02-22T01:46:05.065Z,27.83
2023-02-22T01:48:45.791Z,31.77
2023-02-22T01:51:17.229Z,30.45
2023-02-22T01:53:47.288Z,28.45
2023-02-22T01:56:15.617Z,31.48
2023-02-22T01:58:45.989Z,29.60
2023-02-22T02:01:14.177Z,31.85
2023-02-22T02:03:42.653Z,33.28
2023-02-22T02:06:14.525Z,30.58
2023-02-22T02:08:59.974Z,32.97
2023-02-22T02:11:28.247Z,32.30
2023-02-22T02:13:59.807Z,32.25
2023-02-22T02:16:40.774Z,31.67
2023-02-22T02:19:24.156Z,31.38
2023-02-22T02:22:16.848Z,32.10
2023-02-22T02:25:12.866Z,35.05
2023-02-22T02:27:48.633Z,34.95
2023-02-22T02:30:58.231Z,34.05
2023-02-22T02:33:47.577Z,34.30
2023-02-22T02:36:30.031Z,34.90
2023-02-22T02:39:24.881Z,34.70
2023-02-22T02:41:58.216Z,39.38
2023-02-22T02:44:28.633Z,37.58
2023-02-22T02:47:02.592Z,35.42
2023-02-22T02:49:36.818Z,38.90
2023-02-22T02:52:05.642Z,39.03
2023-02-22T02:54:34.165Z,39.47
2023-02-22T02:57:02.607Z,37.97
2023-02-22T02:59:32.238Z,41.50
2023-02-22T03:02:16.215Z,45.63
2023-02-22T03:07:31.087Z,37.67
2023-02-22T03:10:21.396Z,38.38
2023-02-22T03:13:22.064Z,41.35
2023-02-22T03:15:53.044Z,48.05
2023-02-22T03:18:29.387Z,45.67
2023-02-22T03:21:17.749Z,42.85
2023-02-22T03:23:58.260Z,42.97
2023-02-22T03:26:48.383Z,44.50
2023-02-22T03:29:18.527Z,38.50
2023-02-22T03:32:01.712Z,45.97
2023-02-22T03:34:38.197Z,40.47
2023-02-22T03:37:15.871Z,41.55
2023-02-22T03:39:46.721Z,44.35
2023-02-22T03:42:25.485Z,47.40
2023-02-22T03:44:57.955Z,47.08
2023-02-22T03:47:34.849Z,47.17
2023-02-22T03:50:19.358Z,47.13
2023-02-22T03:52:47.483Z,50.45
2023-02-22T03:55:21.785Z,51.22
2023-02-22T03:57:51.498Z,49.13
2023-02-22T04:00:25.205Z,51.97
2023-02-22T04:02:52.103Z,48.60
2023-02-22T04:05:20.741Z,49.53
2023-02-22T04:07:47.910Z,49.10
2023-02-22T04:10:16.383Z,53.38
2023-02-22T04:12:44.060Z,51.28
2023-02-22T04:15:15.459Z,42.92
2023-02-22T04:17:42.868Z,47.67
2023-02-22T04:20:14.293Z,50.13
2023-02-22T04:22:47.490Z,50.03
2023-02-22T04:25:15.350Z,46.72
2023-02-22T04:27:42.879Z,52.58
2023-02-22T04:30:10.724Z,48.00
2023-02-22T04:32:39.516Z,49.20
2023-02-22T04:35:07.294Z,52.03
2023-02-22T04:37:34.702Z,51.53
2023-02-22T04:40:08.420Z,52.15
2023-02-22T04:42:36.941Z,48.78
2023-02-22T04:45:08.610Z,48.55
2023-02-22T04:47:37.263Z,53.22
2023-02-22T04:50:10.717Z,54.40
2023-02-22T04:52:37.520Z,55.45
2023-02-22T04:55:04.880Z,56.42
2023-02-22T04:57:32.663Z,52.50
2023-02-22T05:00:02.210Z,55.72
2023-02-22T05:02:29.975Z,55.38
2023-02-22T05:04:56.744Z,55.45
2023-02-22T05:07:23.475Z,55.28
2023-02-22T05:09:50.196Z,57.28
2023-02-22T05:12:19.439Z,65.35
2023-02-22T05:14:46.152Z,58.13
2023-02-22T05:17:18.981Z,52.58
2023-02-22T05:19:47.867Z,62.80
2023-02-22T05:22:14.586Z,60.45
2023-02-22T05:24:41.268Z,62.38
2023-02-22T05:27:08.003Z,64.82
2023-02-22T05:29:34.711Z,63.22
2023-02-22T05:32:02.554Z,69.22
2023-02-22T05:34:29.395Z,71.75
2023-02-22T05:36:56.331Z,72.88
2023-02-22T05:39:23.220Z,80.15
2023-02-22T05:41:50.277Z,78.22
2023-02-22T05:44:17.282Z,74.43
2023-02-22T05:46:44.175Z,86.30
2023-02-22T05:49:10.923Z,86.65
2023-02-22T05:51:37.678Z,88.25
2023-02-22T05:54:04.385Z,87.15
2023-02-22T05:56:36.988Z,83.85
2023-02-22T06:01:30.447Z,82.53
2023-02-22T06:03:57.226Z,81.72
2023-02-22T06:06:23.982Z,87.88
2023-02-22T06:08:50.773Z,82.63
2023-02-22T06:11:19.503Z,86.40
2023-02-22T06:13:53.152Z,87.38
2023-02-22T06:16:21.592Z,86.80
2023-02-22T06:18:48.878Z,88.60
2023-02-22T06:21:17.722Z,91.88
2023-02-22T06:23:44.743Z,95.53
2023-02-22T06:26:11.504Z,108.05
2023-02-22T06:28:38.392Z,105.45
2023-02-22T06:31:05.377Z,94.88
2023-02-22T06:33:32.490Z,93.50
2023-02-22T06:35:59.302Z,99.18
2023-02-22T06:38:27.828Z,88.55
2023-02-22T06:40:55.288Z,84.53
2023-02-22T06:43:47.583Z,96.32
2023-02-22T06:46:17.526Z,79.55
2023-02-22T06:48:44.674Z,80.90
2023-02-22T06:51:11.553Z,81.65
2023-02-22T06:53:38.242Z,84.20
2023-02-22T06:56:05.437Z,81.20
2023-02-22T06:58:34.285Z,78.30
2023-02-22T07:01:04.021Z,78.18
2023-02-22T07:03:31.114Z,83.03
2023-02-22T07:05:57.959Z,86.97
2023-02-22T07:08:24.934Z,80.32
2023-02-22T07:10:53.030Z,81.75
2023-02-22T07:13:22.766Z,87.35
2023-02-22T07:15:51.036Z,102.03
2023-02-22T07:18:17.886Z,99.15
2023-02-22T07:20:44.666Z,96.40
2023-02-22T07:23:14.893Z,106.38
2023-02-22T07:25:42.293Z,108.10
2023-02-22T07:28:10.932Z,101.97
2023-02-22T07:30:38.442Z,115.53
2023-02-22T07:33:07.811Z,90.82
2023-02-22T07:35:39.802Z,103.28
2023-02-22T07:38:10.350Z,141.93
2023-02-22T07:40:38.518Z,116.20
2023-02-22T07:43:17.234Z,103.88
2023-02-22T07:45:44.358Z,112.80
2023-02-22T07:48:12.596Z,119.65
2023-02-22T07:50:40.035Z,108.22
2023-02-22T07:53:13.915Z,116.05
2023-02-22T07:55:40.596Z,114.75
2023-02-22T07:58:08.889Z,97.90
2023-02-22T08:00:39.207Z,84.82
2023-02-22T08:03:08.715Z,67.28
2023-02-22T08:05:37.784Z,66.45
2023-02-22T08:08:06.055Z,63.33
2023-02-22T08:10:34.904Z,72.88
2023-02-22T08:13:02.596Z,70.20
2023-02-22T08:15:35.415Z,66.10
2023-02-22T08:18:04.938Z,68.35
2023-02-22T08:20:32.204Z,56.38
2023-02-22T08:22:59.132Z,59.70
2023-02-22T08:25:28.374Z,63.42
2023-02-22T08:28:01.513Z,63.08
2023-02-22T08:30:30.779Z,56.80
2023-02-22T08:32:58.868Z,53.78
2023-02-22T08:35:32.385Z,49.97
2023-02-22T08:38:05.329Z,51.15
2023-02-22T08:40:36.187Z,52.45
2023-02-22T08:43:09.089Z,52.85
2023-02-22T08:45:35.811Z,54.92
2023-02-22T08:48:02.664Z,57.00
2023-02-22T08:50:33.617Z,56.05
2023-02-22T08:53:02.991Z,54.83
2023-02-22T08:55:34.825Z,58.67
2023-02-22T08:58:02.977Z,56.15
2023-02-22T09:00:33.078Z,55.95
2023-02-22T09:03:01.373Z,56.13
2023-02-22T09:05:30.384Z,66.65
2023-02-22T09:07:58.054Z,56.45
2023-02-22T09:10:27.437Z,55.00
2023-02-22T09:12:55.492Z,53.30
2023-02-22T09:15:23.466Z,54.72
2023-02-22T09:17:50.332Z,54.80
2023-02-22T09:20:18.982Z,60.03
2023-02-22T09:22:47.113Z,54.67
2023-02-22T09:25:17.160Z,56.17
2023-02-22T09:27:47.828Z,54.22
2023-02-22T09:30:24.573Z,61.15
2023-02-22T09:32:58.135Z,54.80
2023-02-22T09:35:27.236Z,51.97
2023-02-22T09:38:01.198Z,52.00
2023-02-22T09:40:33.429Z,50.25
2023-02-22T09:43:03.686Z,51.47
2023-02-22T09:45:54.827Z,50.75
2023-02-22T09:48:22.997Z,46.70
2023-02-22T09:50:53.716Z,48.88
2023-02-22T09:53:50.657Z,46.67
2023-02-22T09:56:19.959Z,44.58
2023-02-22T09:58:52.182Z,44.80
2023-02-22T10:01:27.136Z,44.30
2023-02-22T10:04:23.225Z,39.90
2023-02-22T10:07:18.207Z,43.63
2023-02-22T10:09:46.581Z,40.90
2023-02-22T10:12:52.474Z,44.40
2023-02-22T10:15:45.694Z,42.45
2023-02-22T10:18:26.569Z,40.33
2023-02-22T10:21:08.390Z,45.45
2023-02-22T10:23:44.686Z,40.03
2023-02-22T10:26:12.320Z,38.55
2023-02-22T10:28:47.998Z,38.05
2023-02-22T10:31:25.487Z,41.00
2023-02-22T10:34:03.820Z,39.50
2023-02-22T10:36:30.607Z,38.30
2023-02-22T10:39:02.053Z,40.83
2023-02-22T10:41:35.233Z,35.85
2023-02-22T10:44:02.978Z,41.42
2023-02-22T10:46:31.892Z,37.78
2023-02-22T10:49:04.417Z,41.00
2023-02-22T10:51:31.314Z,41.22
2023-02-22T10:54:12.914Z,40.92
2023-02-22T10:56:55.452Z,40.53
2023-02-22T10:59:34.488Z,42.63
2023-02-22T11:02:10.901Z,40.58
2023-02-22T11:04:55.153Z,41.67
2023-02-22T11:07:24.974Z,47.53
2023-02-22T11:10:06.202Z,47.53
2023-02-22T11:12:42.468Z,42.75
2023-02-22T11:15:22.121Z,40.47
2023-02-22T11:17:51.827Z,40.50
2023-02-22T11:20:27.776Z,40.55
2023-02-22T11:23:01.213Z,42.53
2023-02-22T11:25:35.110Z,47.10
2023-02-22T11:28:14.903Z,37.65
2023-02-22T11:30:44.439Z,42.78
2023-02-22T11:33:17.317Z,43.45
2023-02-22T11:35:53.854Z,43.65
2023-02-22T11:38:27.445Z,43.30
2023-02-22T11:43:40.024Z,43.78
2023-02-22T11:46:27.119Z,44.05
2023-02-22T11:49:06.642Z,44.97
2023-02-22T11:51:55.368Z,51.92
2023-02-22T11:54:54.149Z,49.78
2023-02-22T11:57:46.586Z,41.45
2023-02-22T12:00:46.463Z,42.30
2023-02-22T12:03:54.532Z,43.17
2023-02-22T12:06:26.741Z,45.88
2023-02-22T12:09:03.373Z,50.60
2023-02-22T12:11:43.929Z,45.67
2023-02-22T12:14:25.597Z,51.30
2023-02-22T12:17:19.075Z,47.72
2023-02-22T12:19:58.818Z,53.33
2023-02-22T12:22:35.936Z,53.13
2023-02-22T12:25:16.171Z,53.25
2023-02-22T12:27:49.233Z,44.78
2023-02-22T12:30:23.868Z,51.00
2023-02-22T12:32:59.629Z,44.63
2023-02-22T12:35:35.955Z,46.30
2023-02-22T12:38:44.262Z,46.22
2023-02-22T12:41:38.427Z,47.50
2023-02-22T12:44:22.580Z,43.65
2023-02-22T12:46:55.138Z,43.00
2023-02-22T12:52:57.184Z,39.80
2023-02-22T12:55:47.140Z,39.53
2023-02-22T12:58:36.584Z,42.08
2023-02-22T13:01:25.710Z,41.20
2023-02-22T13:03:55.708Z,42.47
2023-02-22T13:07:20.751Z,39.00
2023-02-22T13:10:12.089Z,38.22
2023-02-22T13:12:53.484Z,38.72
2023-02-22T13:15:24.116Z,39.97
2023-02-22T13:18:01.292Z,45.42
2023-02-22T13:20:46.974Z,42.63
2023-02-22T13:23:47.135Z,43.63
2023-02-22T13:26:14.031Z,32.80
2023-02-22T13:28:59.632Z,31.10
2023-02-22T13:31:46.405Z,31.42
2023-02-22T13:34:42.321Z,29.52
2023-02-22T13:38:02.956Z,34.08
2023-02-22T13:40:52.103Z,30.60
2023-02-22T13:43:37.460Z,31.50
2023-02-22T13:46:32.149Z,31.90
2023-02-22T13:49:18.872Z,30.42
2023-02-22T13:51:56.748Z,32.15
2023-02-22T13:55:04.894Z,28.88
2023-02-22T13:57:40.915Z,38.40
2023-02-22T14:00:19.638Z,30.90
2023-02-22T14:03:18.266Z,29.83
2023-02-22T14:05:50.971Z,35.90
2023-02-22T14:08:18.640Z,30.15
2023-02-22T14:10:50.024Z,32.30
2023-02-22T14:13:26.629Z,31.65
2023-02-22T14:16:04.878Z,29.85
2023-02-22T14:18:37.487Z,30.83
2023-02-22T14:23:35.331Z,30.45
2023-02-22T14:26:36.414Z,28.23
2023-02-22T14:29:09.176Z,28.67
2023-02-22T14:31:43.232Z,28.65
2023-02-22T14:34:21.014Z,25.35
2023-02-22T14:37:11.650Z,28.33
2023-02-22T14:40:05.024Z,29.42
2023-02-22T14:42:38.214Z,22.48
2023-02-22T14:45:12.108Z,28.65
2023-02-22T14:47:54.332Z,27.40
2023-02-22T14:50:26.954Z,25.05
2023-02-22T14:53:06.914Z,26.88
2023-02-22T14:55:40.822Z,26.55
2023-02-22T14:58:21.332Z,23.77
2023-02-22T15:00:52.801Z,22.77
2023-02-22T15:03:37.199Z,25.95
2023-02-22T15:06:18.180Z,23.77
2023-02-22T15:08:49.717Z,25.40
2023-02-22T15:11:32.531Z,24.85
2023-02-22T15:16:30.354Z,25.48
2023-02-22T15:19:04.672Z,22.95
2023-02-22T15:21:32.064Z,25.45
2023-02-22T15:24:13.858Z,30.45
2023-02-22T15:26:58.966Z,25.83
2023-02-22T15:29:40.760Z,30.83
2023-02-22T15:32:29.914Z,24.10
2023-02-22T15:35:25.947Z,26.80
2023-02-22T15:38:20.345Z,28.25
2023-02-22T15:40:50.634Z,24.00
2023-02-22T15:43:24.282Z,25.35
2023-02-22T15:45:51.809Z,27.02
2023-02-22T15:48:19.068Z,29.40
2023-02-22T15:51:04.465Z,26.33
2023-02-22T15:53:49.536Z,26.02
2023-02-22T15:56:26.077Z,24.88
2023-02-22T15:59:03.664Z,27.55
2023-02-22T16:01:36.558Z,29.88
2023-02-22T16:04:03.681Z,22.73
2023-02-22T16:06:42.707Z,25.63
2023-02-22T16:09:26.000Z,26.83
2023-02-22T16:12:12.509Z,22.65
2023-02-22T16:14:42.661Z,26.00
2023-02-22T16:17:25.327Z,25.10
2023-02-22T16:19:52.627Z,25.77
2023-02-22T16:22:33.785Z,27.50
2023-02-22T16:25:19.087Z,27.90
2023-02-22T16:27:57.999Z,24.95
2023-02-22T16:30:26.910Z,26.42
2023-02-22T16:32:56.037Z,27.30
2023-02-22T16:35:28.563Z,28.98
2023-02-22T16:37:59.545Z,29.42
2023-02-22T16:40:36.305Z,27.70
2023-02-22T16:43:06.244Z,26.05
2023-02-22T16:45:33.273Z,27.73
2023-02-22T16:48:00.620Z,26.33
2023-02-22T16:50:27.325Z,31.00
2023-02-22T16:52:55.258Z,29.65
2023-02-22T16:55:22.612Z,31.35
2023-02-22T16:57:50.560Z,26.48
2023-02-22T17:00:33.167Z,38.45
2023-02-22T17:03:04.011Z,31.77
2023-02-22T17:05:35.922Z,39.95
2023-02-22T17:08:04.279Z,34.63
2023-02-22T17:10:31.081Z,28.92
2023-02-22T17:13:01.036Z,33.88
2023-02-22T17:15:34.619Z,33.20
2023-02-22T17:18:05.349Z,33.55
2023-02-22T17:20:32.106Z,34.53
2023-02-22T17:23:01.211Z,41.05
2023-02-22T17:25:32.110Z,37.25
2023-02-22T17:27:58.897Z,37.17
2023-02-22T17:30:28.965Z,35.25
2023-02-22T17:33:04.893Z,37.30
2023-02-22T17:35:36.611Z,38.50
2023-02-22T17:38:07.394Z,36.25
2023-02-22T17:40:36.431Z,39.53
2023-02-22T17:43:03.896Z,45.78
2023-02-22T17:45:30.828Z,48.67
2023-02-22T17:47:59.348Z,47.47
2023-02-22T17:50:27.285Z,56.55
2023-02-22T17:52:54.190Z,45.05
2023-02-22T17:55:22.296Z,47.35
2023-02-22T17:57:58.080Z,54.28
2023-02-22T18:00:33.001Z,55.08
2023-02-22T18:03:11.867Z,51.90
2023-02-22T18:05:46.109Z,56.80
2023-02-22T18:08:13.616Z,57.72
2023-02-22T18:10:44.502Z,52.45
2023-02-22T18:13:18.740Z,53.42
2023-02-22T18:15:47.471Z,55.33
2023-02-22T18:18:16.127Z,57.63
2023-02-22T18:20:44.653Z,62.17
2023-02-22T18:23:16.282Z,61.28
2023-02-22T18:26:07.682Z,56.35
2023-02-22T18:28:38.456Z,59.60
2023-02-22T18:31:09.920Z,57.75
2023-02-22T18:33:36.820Z,64.57
2023-02-22T18:36:05.490Z,61.65
2023-02-22T18:38:32.621Z,72.35
2023-02-22T18:40:59.634Z,70.35
2023-02-22T18:43:27.098Z,68.10
2023-02-22T18:45:53.902Z,75.88
2023-02-22T18:48:20.642Z,70.30
2023-02-22T18:50:47.599Z,65.60
2023-02-22T18:53:14.349Z,71.05
2023-02-22T18:55:41.175Z,64.93
2023-02-22T18:58:11.008Z,84.55
2023-02-22T19:00:38.132Z,85.22
2023-02-22T19:03:05.759Z,80.85
2023-02-22T19:05:33.336Z,81.28
2023-02-22T19:08:00.927Z,74.72
2023-02-22T19:10:28.686Z,81.07
2023-02-22T19:12:55.548Z,83.03
2023-02-22T19:15:23.515Z,92.47
2023-02-22T19:17:50.247Z,87.80
2023-02-22T19:20:17.277Z,88.30
2023-02-22T19:22:45.519Z,89.05
2023-02-22T19:25:12.396Z,90.63
2023-02-22T19:27:54.026Z,95.22
2023-02-22T19:30:20.745Z,89.70
2023-02-22T19:32:47.540Z,89.38
2023-02-22T19:35:28.404Z,87.68
2023-02-22T19:38:00.137Z,84.65
2023-02-22T19:40:28.579Z,87.85
2023-02-22T19:42:57.536Z,95.13
2023-02-22T19:45:25.115Z,86.38
2023-02-22T19:47:55.800Z,87.85
2023-02-22T19:50:23.046Z,90.55
2023-02-22T19:52:53.496Z,99.57
2023-02-22T19:55:21.368Z,86.93
2023-02-22T19:57:50.214Z,92.18
2023-02-22T20:00:24.357Z,91.60
2023-02-22T20:03:05.767Z,97.00
2023-02-22T20:05:33.706Z,93.75
2023-02-22T20:08:00.740Z,82.20
2023-02-22T20:10:27.614Z,85.85
2023-02-22T20:12:54.525Z,97.20
2023-02-22T20:15:23.918Z,82.90
2023-02-22T20:17:53.488Z,84.03
2023-02-22T20:20:21.790Z,86.45
2023-02-22T20:22:51.117Z,85.03
2023-02-22T20:25:17.986Z,85.25
2023-02-22T20:27:44.797Z,88.50
2023-02-22T20:30:12.097Z,89.85
2023-02-22T20:32:39.664Z,88.40
2023-02-22T20:35:07.513Z,78.15
2023-02-22T20:37:35.389Z,90.93
2023-02-22T20:40:04.182Z,83.03
2023-02-22T20:42:31.914Z,91.60
2023-02-22T20:45:01.875Z,84.40
2023-02-22T20:47:29.039Z,97.80
2023-02-22T20:49:55.693Z,96.28
2023-02-22T20:52:22.379Z,88.95
2023-02-22T20:54:49.093Z,102.72
2023-02-22T20:57:16.143Z,93.47
2023-02-22T20:59:45.780Z,91.57
2023-02-22T21:02:12.486Z,87.07
2023-02-22T21:04:40.005Z,92.20
2023-02-22T21:07:06.788Z,88.78
2023-02-22T21:09:33.905Z,88.05
2023-02-22T21:12:00.900Z,83.25
2023-02-22T21:14:28.278Z,88.20
2023-02-22T21:16:55.090Z,97.45
2023-02-22T21:19:28.067Z,83.72
2023-02-22T21:22:01.311Z,83.82
2023-02-22T21:24:29.456Z,89.28
2023-02-22T21:27:00.105Z,89.70
2023-02-22T21:29:36.809Z,89.63
2023-02-22T21:32:04.020Z,88.75
2023-02-22T21:34:30.893Z,93.15
2023-02-22T21:36:57.601Z,87.22
2023-02-22T21:39:28.260Z,86.00
2023-02-22T21:41:59.962Z,85.80
2023-02-22T21:44:27.542Z,94.90
2023-02-22T21:46:54.331Z,92.70
2023-02-22T21:49:23.828Z,91.10
2023-02-22T21:51:51.774Z,93.63
2023-02-22T21:54:19.250Z,84.18
2023-02-22T21:56:48.400Z,86.63
2023-02-22T21:59:19.005Z,89.30
2023-02-22T22:01:51.619Z,76.18
2023-02-22T22:06:51.873Z,70.57
2023-02-22T22:09:19.578Z,79.57
2023-02-22T22:11:49.529Z,80.75
2023-02-22T22:14:23.022Z,79.85
2023-02-22T22:16:53.307Z,76.18
2023-02-22T22:19:22.969Z,76.03
2023-02-22T22:21:53.300Z,71.25
2023-02-22T22:24:22.375Z,67.38
2023-02-22T22:27:02.017Z,70.95
2023-02-22T22:29:29.497Z,77.03
2023-02-22T22:31:56.838Z,73.35
2023-02-22T22:34:29.396Z,73.10
2023-02-22T22:37:00.246Z,79.07
2023-02-22T22:39:27.276Z,83.35
2023-02-22T22:41:54.409Z,85.68
2023-02-22T22:44:23.886Z,82.72
2023-02-22T22:46:54.700Z,84.93
2023-02-22T22:49:24.003Z,76.88
2023-02-22T22:51:51.120Z,82.50
2023-02-22T22:54:18.212Z,87.72
2023-02-22T22:56:44.961Z,94.53
2023-02-22T22:59:13.186Z,81.68
2023-02-22T23:01:44.363Z,90.97
2023-02-22T23:04:16.629Z,85.97
2023-02-22T23:06:49.880Z,83.63
2023-02-22T23:09:21.687Z,76.68
2023-02-22T23:11:51.215Z,89.10
2023-02-22T23:14:32.157Z,82.95
2023-02-22T23:17:03.341Z,86.47
2023-02-22T23:19:34.828Z,87.20
2023-02-22T23:22:05.097Z,93.55
2023-02-22T23:24:36.006Z,88.13
2023-02-22T23:27:07.048Z,86.35
2023-02-22T23:29:38.145Z,83.93
2023-02-22T23:32:08.580Z,93.80
2023-02-22T23:34:36.415Z,86.32
2023-02-22T23:37:03.522Z,84.18
2023-02-22T23:39:30.260Z,85.22
2023-02-22T23:41:59.180Z,88.72
2023-02-22T23:44:27.238Z,95.13
2023-02-22T23:46:55.146Z,90.40
2023-02-22T23:49:25.142Z,93.93
2023-02-22T23:51:52.604Z,86.50
2023-02-22T23:54:24.273Z,92.20
2023-02-22T23:56:56.629Z,91.00
